createdAt,value
2023-04-18T00:02:04.072Z,0
2023-04-18T00:07:23.451Z,0
2023-04-18T00:18:02.040Z,0
2023-04-18T00:23:20.861Z,0
2023-04-18T00:28:39.755Z,0
2023-04-18T00:33:58.942Z,0
2023-04-18T00:39:18.720Z,0
2023-04-18T00:49:57.438Z,0
2023-04-18T01:00:36.104Z,0
2023-04-18T01:05:55.009Z,0
2023-04-18T01:16:33.548Z,0
2023-04-18T01:21:52.789Z,0
2023-04-18T01:27:12.441Z,0
2023-04-18T01:32:31.977Z,0
2023-04-18T01:37:50.678Z,0
2023-04-18T01:48:28.795Z,0
2023-04-18T01:59:06.692Z,0
2023-04-18T02:04:26.414Z,0
2023-04-18T02:09:45.738Z,0
2023-04-18T02:15:05.370Z,0
2023-04-18T02:20:24.126Z,0
2023-04-18T02:25:53.643Z,0
2023-04-18T02:31:02.925Z,0
2023-04-18T02:36:22.376Z,0
2023-04-18T02:41:42.124Z,0
2023-04-18T02:47:01.376Z,0
2023-04-18T02:52:21.058Z,0
2023-04-18T02:57:39.853Z,0
2023-04-18T03:02:59.677Z,0
2023-04-18T03:08:19.655Z,0
2023-04-18T03:13:38.837Z,0
2023-04-18T03:18:58.210Z,0
2023-04-18T03:24:17.363Z,0
2023-04-18T03:29:36.268Z,0
2023-04-18T03:34:55.499Z,0
2023-04-18T03:40:14.986Z,0
2023-04-18T03:45:33.863Z,0
2023-04-18T03:50:52.617Z,0
2023-04-18T03:56:11.911Z,0
2023-04-18T04:01:30.870Z,0
2023-04-18T04:06:49.679Z,0
2023-04-18T04:12:09.082Z,0
2023-04-18T04:17:28.051Z,5
2023-04-18T04:22:46.824Z,9
2023-04-18T04:28:06.210Z,17
2023-04-18T04:33:25.476Z,23
2023-04-18T04:38:44.451Z,26.15
2023-04-18T04:49:22.937Z,30.2
2023-04-18T04:54:42.171Z,30.4
2023-04-18T05:00:01.675Z,34.55
2023-04-18T05:05:21.213Z,36.95
2023-04-18T05:10:40.480Z,35.55
2023-04-18T05:15:59.292Z,36.89
2023-04-18T05:21:18.222Z,37.59
2023-04-18T05:26:37.594Z,41.04
2023-04-18T05:31:56.561Z,58.19
2023-04-18T05:37:15.391Z,72.3
2023-04-18T05:47:54.735Z,116.94
2023-04-18T05:53:14.136Z,98.54
2023-04-18T05:58:33.822Z,100
2023-04-18T06:03:52.121Z,102.94
2023-04-18T06:09:11.047Z,103.64
2023-04-18T06:19:49.743Z,142.75
2023-04-18T06:25:08.786Z,155.14
2023-04-18T06:30:28.353Z,145.54
2023-04-18T06:35:47.918Z,153.79
2023-04-18T06:46:26.652Z,225.64
2023-04-18T06:57:05.513Z,240.95
2023-04-18T07:02:24.992Z,305.29
2023-04-18T07:07:44.621Z,324.84
2023-04-18T07:13:03.416Z,282.15
2023-04-18T07:18:30.560Z,235.09
2023-04-18T07:23:41.665Z,254.7
2023-04-18T07:29:01.214Z,283.69
2023-04-18T07:34:30.774Z,423.94
2023-04-18T07:39:39.935Z,332.25
2023-04-18T07:50:18.137Z,354.79
2023-04-18T07:55:36.901Z,386.9
2023-04-18T08:00:56.333Z,343
2023-04-18T08:06:15.159Z,490.84
2023-04-18T08:11:34.159Z,475.54
2023-04-18T08:16:53.494Z,329.25
2023-04-18T08:22:13.264Z,287.84
2023-04-18T08:27:32.423Z,306.84
2023-04-18T08:38:11.190Z,354.44
2023-04-18T08:43:30.365Z,458.75
2023-04-18T08:48:49.287Z,425.59
2023-04-18T08:54:08.412Z,432.04
2023-04-18T08:59:28.009Z,513.4
2023-04-18T09:04:47.696Z,368.94
2023-04-18T09:10:06.843Z,369.9
2023-04-18T09:15:26.503Z,444.65
2023-04-18T09:20:45.972Z,28.83
2023-04-18T09:26:04.983Z,273.28
2023-04-18T09:31:24.209Z,50.39
2023-04-18T09:36:43.945Z,546.15
2023-04-18T09:42:02.933Z,56.89
2023-04-18T09:47:22.208Z,352.23
2023-04-18T09:52:41.195Z,286.94
2023-04-18T09:58:00.643Z,175.64
2023-04-18T10:03:20.224Z,571.5
2023-04-18T10:08:39.529Z,459.5
2023-04-18T10:13:58.884Z,508.09
2023-04-18T10:19:18.136Z,498.29
2023-04-18T10:24:38.254Z,472
2023-04-18T10:29:57.529Z,402.34
2023-04-18T10:35:16.308Z,246.2
2023-04-18T10:40:35.944Z,298.19
2023-04-18T10:45:54.234Z,294.34
2023-04-18T10:51:12.995Z,313.65
2023-04-18T11:01:51.231Z,637.69
2023-04-18T11:12:29.780Z,504.5
2023-04-18T11:17:48.997Z,304.59
2023-04-18T11:23:07.886Z,278.5
2023-04-18T11:28:26.981Z,380.84
2023-04-18T11:33:46.556Z,493.59
2023-04-18T11:39:05.330Z,488.44
2023-04-18T11:44:24.906Z,434
2023-04-18T11:55:03.700Z,403.29
2023-04-18T12:00:23.103Z,385.29
2023-04-18T12:05:42.919Z,341.5
2023-04-18T12:11:01.411Z,395.44
2023-04-18T12:16:20.296Z,413.29
2023-04-18T12:21:40.028Z,477.25
2023-04-18T12:26:59.813Z,279.59
2023-04-18T12:32:19.371Z,315.5
2023-04-18T12:37:38.984Z,387.5
2023-04-18T12:42:57.714Z,568.3
2023-04-18T12:48:16.761Z,457.34
2023-04-18T12:53:36.281Z,401.15
2023-04-18T12:58:55.583Z,292.79
2023-04-18T13:09:33.614Z,386.69
2023-04-18T13:14:53.214Z,392.5
2023-04-18T13:21:51.553Z,290.2
2023-04-18T13:25:32.910Z,452.54
2023-04-18T13:36:39.041Z,264.28
2023-04-18T13:41:58.552Z,168.64
2023-04-18T13:47:18.278Z,423.5
2023-04-18T13:52:37.673Z,305.9
2023-04-18T13:57:56.394Z,348.19
2023-04-18T14:03:15.994Z,327
2023-04-18T14:08:34.689Z,326.79
2023-04-18T14:13:54.119Z,400.75
2023-04-18T14:19:11.975Z,452.34
2023-04-18T14:24:30.786Z,280.9
2023-04-18T14:29:49.427Z,452.69
2023-04-18T14:35:08.507Z,392.15
2023-04-18T14:40:27.390Z,363.19
2023-04-18T14:45:46.247Z,338.04
2023-04-18T14:51:05.504Z,254.89
2023-04-18T14:56:24.823Z,253.95
2023-04-18T15:01:43.791Z,255.45
2023-04-18T15:07:03.428Z,239.39
2023-04-18T15:12:22.666Z,197.54
2023-04-18T15:17:42.270Z,143.35
2023-04-18T15:23:01.814Z,145.14
2023-04-18T15:28:21.293Z,123.25
2023-04-18T15:33:40.339Z,114.5
2023-04-18T15:39:00.008Z,90.2
2023-04-18T15:44:19.089Z,86.35
2023-04-18T15:49:38.537Z,81.14
2023-04-18T15:54:57.554Z,88.14
2023-04-18T16:00:16.367Z,99.29
2023-04-18T16:05:35.621Z,96.94
2023-04-18T16:16:14.395Z,72.44
2023-04-18T16:26:53.215Z,78.25
2023-04-18T16:32:12.551Z,76.3
2023-04-18T16:42:50.865Z,78.34
2023-04-18T16:48:09.950Z,71.05
2023-04-18T16:53:29.303Z,59.64
2023-04-18T16:58:48.687Z,59.34
2023-04-18T17:04:08.345Z,58.09
2023-04-18T17:14:46.468Z,59.94
2023-04-18T17:20:05.796Z,52.5
2023-04-18T17:25:25.279Z,50.15
2023-04-18T17:30:44.563Z,48.79
2023-04-18T17:36:06.151Z,44.15
2023-04-18T17:41:23.731Z,39.54
2023-04-18T17:52:01.706Z,32.09
2023-04-18T17:57:21.265Z,31.45
2023-04-18T18:02:41.011Z,25.2
2023-04-18T18:08:00.455Z,28.1
2023-04-18T18:13:19.638Z,25.1
2023-04-18T18:18:38.569Z,19
2023-04-18T18:23:57.733Z,11
2023-04-18T18:29:16.717Z,7
2023-04-18T18:39:54.573Z,0
2023-04-18T18:50:33.838Z,0
2023-04-18T18:55:52.657Z,0
2023-04-18T19:06:31.687Z,0
2023-04-18T19:11:50.525Z,0
2023-04-18T19:17:09.383Z,0
2023-04-18T19:22:28.980Z,0
2023-04-18T19:33:07.375Z,0
2023-04-18T19:38:26.790Z,0
2023-04-18T19:43:45.907Z,0
2023-04-18T19:49:05.476Z,0
2023-04-18T19:54:24.623Z,0
2023-04-18T19:59:44.002Z,0
2023-04-18T20:05:03.872Z,0
2023-04-18T20:15:42.941Z,0
2023-04-18T20:21:02.569Z,0
2023-04-18T20:26:22.272Z,0
2023-04-18T20:31:41.629Z,0
2023-04-18T20:37:00.596Z,0
2023-04-18T20:42:19.023Z,0
2023-04-18T20:47:38.656Z,0
2023-04-18T20:58:17.140Z,0
2023-04-18T21:03:36.644Z,0
2023-04-18T21:08:55.532Z,0
2023-04-18T21:14:14.449Z,0
2023-04-18T21:19:33.266Z,0
2023-04-18T21:24:52.505Z,0
2023-04-18T21:30:11.974Z,0
2023-04-18T21:35:31.454Z,0
2023-04-18T21:40:50.875Z,0
2023-04-18T21:46:10.475Z,0
2023-04-18T21:51:30.017Z,0
2023-04-18T21:56:50.196Z,0
2023-04-18T22:02:09.819Z,0
2023-04-18T22:07:28.918Z,0
2023-04-18T22:12:48.265Z,0
2023-04-18T22:18:07.444Z,0
2023-04-18T22:23:26.320Z,0
2023-04-18T22:28:44.446Z,0
2023-04-18T22:34:03.417Z,0
2023-04-18T22:39:22.901Z,0
2023-04-18T22:44:42.592Z,0
2023-04-18T22:50:01.501Z,0
2023-04-18T22:55:20.984Z,0
2023-04-18T23:05:59.310Z,0
2023-04-18T23:16:38.182Z,0
2023-04-18T23:21:57.658Z,0
2023-04-18T23:32:37.058Z,0
2023-04-18T23:37:56.023Z,0
2023-04-18T23:48:34.625Z,0
2023-04-18T23:53:53.645Z,0
